createdAt,value
2019-05-01T00:01:03.194Z,23.95
2019-05-01T00:03:39.175Z,20.48
2019-05-01T00:06:09.558Z,25.00
2019-05-01T00:08:38.117Z,25.65
2019-05-01T00:11:06.656Z,24.07
2019-05-01T00:13:35.266Z,24.98
2019-05-01T00:16:03.935Z,22.93
2019-05-01T00:18:32.428Z,25.88
2019-05-01T00:21:00.961Z,24.53
2019-05-01T00:23:29.454Z,25.32
2019-05-01T00:25:57.917Z,22.13
2019-05-01T00:28:26.484Z,21.15
2019-05-01T00:30:54.957Z,20.47
2019-05-01T00:33:23.457Z,24.05
2019-05-01T00:35:52.007Z,26.33
2019-05-01T00:38:20.496Z,22.40
2019-05-01T00:40:48.978Z,25.50
2019-05-01T00:43:17.474Z,22.22
2019-05-01T00:45:45.951Z,20.35
2019-05-01T00:48:14.445Z,24.37
2019-05-01T00:50:42.914Z,23.07
2019-05-01T00:53:11.486Z,22.82
2019-05-01T00:55:50.616Z,24.10
2019-05-01T00:58:29.293Z,21.48
2019-05-01T01:01:02.140Z,30.17
2019-05-01T01:03:31.719Z,26.45
2019-05-01T01:06:00.118Z,18.83
2019-05-01T01:08:28.625Z,23.00
2019-05-01T01:10:57.104Z,25.00
2019-05-01T01:13:25.678Z,22.62
2019-05-01T01:15:54.211Z,28.13
2019-05-01T01:18:22.704Z,26.87
2019-05-01T01:20:51.190Z,22.67
2019-05-01T01:23:19.754Z,25.32
2019-05-01T01:25:48.397Z,22.70
2019-05-01T01:28:17.564Z,26.97
2019-05-01T01:30:55.652Z,23.37
2019-05-01T01:33:16.209Z,28.73
2019-05-01T01:35:44.719Z,24.63
2019-05-01T01:38:13.254Z,30.15
2019-05-01T01:40:41.821Z,24.47
2019-05-01T01:43:28.285Z,28.10
2019-05-01T01:46:01.333Z,26.20
2019-05-01T01:48:29.866Z,28.95
2019-05-01T01:50:58.425Z,30.27
2019-05-01T01:53:26.949Z,27.25
2019-05-01T01:55:55.525Z,28.13
2019-05-01T01:58:23.970Z,29.30
2019-05-01T02:00:54.635Z,24.90
2019-05-01T02:03:24.912Z,34.38
2019-05-01T02:05:53.464Z,27.63
2019-05-01T02:08:21.940Z,28.60
2019-05-01T02:10:50.499Z,30.00
2019-05-01T02:13:19.042Z,26.15
2019-05-01T02:15:47.533Z,25.93
2019-05-01T02:18:16.066Z,29.15
2019-05-01T02:20:44.557Z,24.17
2019-05-01T02:23:13.016Z,26.33
2019-05-01T02:25:43.181Z,28.70
2019-05-01T02:28:22.545Z,26.70
2019-05-01T02:31:26.683Z,30.07
2019-05-01T02:33:40.929Z,27.07
2019-05-01T02:36:10.689Z,33.50
2019-05-01T02:38:40.954Z,30.35
2019-05-01T02:41:11.053Z,26.17
2019-05-01T02:43:41.413Z,28.85
2019-05-01T02:46:11.636Z,27.73
2019-05-01T02:48:43.281Z,24.80
2019-05-01T02:51:12.542Z,28.43
2019-05-01T02:53:43.503Z,29.32
2019-05-01T02:56:23.441Z,30.50
2019-05-01T02:58:52.574Z,27.02
2019-05-01T03:01:21.830Z,30.27
2019-05-01T03:03:51.375Z,28.90
2019-05-01T03:06:20.312Z,27.63
2019-05-01T03:08:48.778Z,27.00
2019-05-01T03:11:17.267Z,30.80
2019-05-01T03:13:46.810Z,26.25
2019-05-01T03:16:16.450Z,29.33
2019-05-01T03:18:56.077Z,31.45
2019-05-01T03:21:32.371Z,30.00
2019-05-01T03:24:05.243Z,28.12
2019-05-01T03:26:35.210Z,30.20
2019-05-01T03:29:05.310Z,29.92
2019-05-01T03:31:33.807Z,27.17
2019-05-01T03:34:02.347Z,29.55
2019-05-01T03:36:30.849Z,29.03
2019-05-01T03:38:59.310Z,33.02
2019-05-01T03:41:27.986Z,29.23
2019-05-01T03:43:56.514Z,33.45
2019-05-01T03:46:25.554Z,29.30
2019-05-01T03:48:54.014Z,29.10
2019-05-01T03:51:22.671Z,29.80
2019-05-01T03:53:51.132Z,29.82
2019-05-01T03:56:19.631Z,26.77
2019-05-01T03:58:48.167Z,30.15
2019-05-01T04:01:18.370Z,30.50
2019-05-01T04:03:48.539Z,30.27
2019-05-01T04:06:17.039Z,28.60
2019-05-01T04:08:45.513Z,31.12
2019-05-01T04:11:14.125Z,31.03
2019-05-01T04:13:42.596Z,27.40
2019-05-01T04:16:11.230Z,26.07
2019-05-01T04:18:39.712Z,25.70
2019-05-01T04:21:09.213Z,26.60
2019-05-01T04:23:38.245Z,27.27
2019-05-01T04:26:07.574Z,25.10
2019-05-01T04:28:40.569Z,28.42
2019-05-01T04:31:14.462Z,30.97
2019-05-01T04:33:44.586Z,31.30
2019-05-01T04:36:17.905Z,29.27
2019-05-01T04:38:46.464Z,31.23
2019-05-01T04:41:15.202Z,29.00
2019-05-01T04:43:43.876Z,33.30
2019-05-01T04:46:12.506Z,28.90
2019-05-01T04:48:41.441Z,28.02
2019-05-01T04:51:10.115Z,27.37
2019-05-01T04:53:38.664Z,32.63
2019-05-01T04:56:07.132Z,34.25
2019-05-01T04:58:35.688Z,34.13
2019-05-01T05:01:04.236Z,25.80
2019-05-01T05:03:32.902Z,34.20
2019-05-01T05:06:01.444Z,32.53
2019-05-01T05:08:30.108Z,28.70
2019-05-01T05:11:00.653Z,31.50
2019-05-01T05:13:36.658Z,28.35
2019-05-01T05:16:22.209Z,24.80
2019-05-01T05:18:51.098Z,23.27
2019-05-01T05:21:19.613Z,28.70
2019-05-01T05:23:48.965Z,29.65
2019-05-01T05:26:17.503Z,26.73
2019-05-01T05:28:46.374Z,26.27
2019-05-01T05:31:15.103Z,30.77
2019-05-01T05:33:45.338Z,26.80
2019-05-01T05:36:15.066Z,29.23
2019-05-01T05:38:51.408Z,29.32
2019-05-01T05:41:19.915Z,31.60
2019-05-01T05:43:48.877Z,31.75
2019-05-01T05:46:17.335Z,34.17
2019-05-01T05:48:45.976Z,31.37
2019-05-01T05:51:31.864Z,31.27
2019-05-01T05:54:03.702Z,30.57
2019-05-01T05:56:51.721Z,32.27
2019-05-01T05:59:28.847Z,27.00
2019-05-01T06:02:05.929Z,28.33
2019-05-01T06:04:52.817Z,27.10
2019-05-01T06:07:24.593Z,30.27
2019-05-01T06:10:08.185Z,32.10
2019-05-01T06:12:46.884Z,32.03
2019-05-01T06:15:18.841Z,49.98
2019-05-01T06:17:51.432Z,56.25
2019-05-01T06:20:25.816Z,41.68
2019-05-01T06:23:08.915Z,27.00
2019-05-01T06:25:40.598Z,29.70
2019-05-01T06:28:09.237Z,33.85
2019-05-01T06:30:41.936Z,29.80
2019-05-01T06:33:09.385Z,35.73
2019-05-01T06:35:39.314Z,31.73
2019-05-01T06:38:13.902Z,27.48
2019-05-01T06:40:47.466Z,29.27
2019-05-01T06:43:27.246Z,29.75
2019-05-01T06:46:12.453Z,29.90
2019-05-01T06:48:57.472Z,29.05
2019-05-01T06:51:36.902Z,30.00
2019-05-01T06:54:11.325Z,26.80
2019-05-01T06:56:41.455Z,27.70
2019-05-01T06:59:10.178Z,29.80
2019-05-01T07:01:39.038Z,28.00
2019-05-01T07:04:07.573Z,30.90
2019-05-01T07:06:36.727Z,26.73
2019-05-01T07:09:11.906Z,33.45
2019-05-01T07:11:38.564Z,26.07
2019-05-01T07:14:11.084Z,28.47
2019-05-01T07:16:38.090Z,27.60
2019-05-01T07:19:08.847Z,30.05
2019-05-01T07:21:38.018Z,27.15
2019-05-01T07:24:06.657Z,38.75
2019-05-01T07:26:35.229Z,32.33
2019-05-01T07:29:11.288Z,29.60
2019-05-01T07:31:39.788Z,23.60
2019-05-01T07:34:16.296Z,25.68
2019-05-01T07:36:38.468Z,21.33
2019-05-01T07:39:09.847Z,24.82
2019-05-01T07:41:39.021Z,25.50
2019-05-01T07:44:15.089Z,25.17
2019-05-01T07:47:01.753Z,24.67
2019-05-01T07:49:52.869Z,22.98
2019-05-01T07:52:20.999Z,25.47
2019-05-01T07:54:49.845Z,25.10
2019-05-01T07:57:18.520Z,23.30
2019-05-01T07:59:47.245Z,28.12
2019-05-01T08:02:15.753Z,22.30
2019-05-01T08:04:44.221Z,26.33
2019-05-01T08:07:12.722Z,30.77
2019-05-01T08:09:41.188Z,21.55
2019-05-01T08:12:09.685Z,21.23
2019-05-01T08:14:38.237Z,26.62
2019-05-01T08:17:06.818Z,25.27
2019-05-01T08:19:45.461Z,25.02
2019-05-01T08:22:21.581Z,26.63
2019-05-01T08:24:53.857Z,22.10
2019-05-01T08:27:21.831Z,22.35
2019-05-01T08:30:07.889Z,24.05
2019-05-01T08:32:39.085Z,23.67
2019-05-01T08:35:15.683Z,22.43
2019-05-01T08:37:44.201Z,28.50
2019-05-01T08:40:15.820Z,28.93
2019-05-01T08:42:44.182Z,27.07
2019-05-01T08:45:22.997Z,25.50
2019-05-01T08:48:11.241Z,21.25
2019-05-01T08:50:39.710Z,20.63
2019-05-01T08:53:08.222Z,21.12
2019-05-01T08:55:39.893Z,21.17
2019-05-01T08:58:08.871Z,22.20
2019-05-01T09:00:40.972Z,18.50
2019-05-01T09:03:08.658Z,17.67
2019-05-01T09:05:37.320Z,21.80
2019-05-01T09:08:05.820Z,20.63
2019-05-01T09:10:34.300Z,19.10
2019-05-01T09:13:02.810Z,18.30
2019-05-01T09:15:31.350Z,17.77
2019-05-01T09:17:59.848Z,20.87
2019-05-01T09:20:28.989Z,14.37
2019-05-01T09:22:57.487Z,15.23
2019-05-01T09:25:30.934Z,20.90
2019-05-01T09:28:04.160Z,17.90
2019-05-01T09:30:36.500Z,20.83
2019-05-01T09:33:05.086Z,14.97
2019-05-01T09:35:33.626Z,16.23
2019-05-01T09:38:02.176Z,14.13
2019-05-01T09:40:30.642Z,15.63
2019-05-01T09:43:00.943Z,14.80
2019-05-01T09:45:29.329Z,19.73
2019-05-01T09:47:57.960Z,14.60
2019-05-01T09:50:30.408Z,14.50
2019-05-01T09:53:01.046Z,16.13
2019-05-01T09:55:31.367Z,16.13
2019-05-01T09:58:02.656Z,17.33
2019-05-01T10:00:33.477Z,12.07
2019-05-01T10:03:01.953Z,11.50
2019-05-01T10:05:30.444Z,13.28
2019-05-01T10:08:00.165Z,9.17
2019-05-01T10:10:30.615Z,8.70
2019-05-01T10:12:59.243Z,12.10
2019-05-01T10:15:27.736Z,12.80
2019-05-01T10:17:56.202Z,15.50
2019-05-01T10:20:24.680Z,6.80
2019-05-01T10:22:53.208Z,9.37
2019-05-01T10:25:21.704Z,12.55
2019-05-01T10:28:00.580Z,12.67
2019-05-01T10:30:42.380Z,13.37
2019-05-01T10:33:12.485Z,22.60
2019-05-01T10:35:58.870Z,15.70
2019-05-01T10:38:27.336Z,13.23
2019-05-01T10:40:55.843Z,10.80
2019-05-01T10:43:24.311Z,11.70
2019-05-01T10:45:52.797Z,9.53
2019-05-01T10:48:21.272Z,19.57
2019-05-01T10:50:49.779Z,47.87
2019-05-01T10:53:18.251Z,50.20
2019-05-01T10:55:46.741Z,52.10
2019-05-01T10:58:18.365Z,33.97
2019-05-01T11:00:47.158Z,36.50
2019-05-01T11:03:15.620Z,71.93
2019-05-01T11:05:55.316Z,117.63
2019-05-01T11:08:14.392Z,77.60
2019-05-01T11:10:42.885Z,80.67
2019-05-01T11:13:11.357Z,50.93
2019-05-01T11:15:39.911Z,47.30
2019-05-01T11:18:08.507Z,58.53
2019-05-01T11:20:37.006Z,64.22
2019-05-01T11:23:05.551Z,28.30
2019-05-01T11:25:34.544Z,19.53
2019-05-01T11:28:03.180Z,19.77
2019-05-01T11:30:31.674Z,16.80
2019-05-01T11:33:07.321Z,7.63
2019-05-01T11:35:37.520Z,9.43
2019-05-01T11:38:10.339Z,9.57
2019-05-01T11:40:43.213Z,8.67
2019-05-01T11:43:11.738Z,7.93
2019-05-01T11:45:40.305Z,10.00
2019-05-01T11:48:08.773Z,6.40
2019-05-01T11:50:37.426Z,7.43
2019-05-01T11:53:05.972Z,7.43
2019-05-01T11:55:34.461Z,8.80
2019-05-01T11:58:02.930Z,7.00
2019-05-01T12:00:31.423Z,9.60
2019-05-01T12:02:59.936Z,6.53
2019-05-01T12:05:28.620Z,7.80
2019-05-01T12:07:57.171Z,7.83
2019-05-01T12:10:25.704Z,8.67
2019-05-01T12:12:54.194Z,7.13
2019-05-01T12:15:22.725Z,9.27
2019-05-01T12:17:51.391Z,10.07
2019-05-01T12:20:21.467Z,12.53
2019-05-01T12:22:51.543Z,13.20
2019-05-01T12:25:20.254Z,14.13
2019-05-01T12:27:48.865Z,7.83
2019-05-01T12:30:19.084Z,7.97
2019-05-01T12:32:47.565Z,5.47
2019-05-01T12:35:16.194Z,5.20
2019-05-01T12:37:44.680Z,6.47
2019-05-01T12:40:15.279Z,5.83
2019-05-01T12:42:43.908Z,5.33
2019-05-01T12:45:14.012Z,7.53
2019-05-01T12:47:56.264Z,6.20
2019-05-01T12:50:24.803Z,6.07
2019-05-01T12:52:58.086Z,6.03
2019-05-01T12:55:30.868Z,4.93
2019-05-01T12:57:59.361Z,5.47
2019-05-01T13:00:42.428Z,4.83
2019-05-01T13:03:11.364Z,4.33
2019-05-01T13:05:39.821Z,6.40
2019-05-01T13:08:08.309Z,8.33
2019-05-01T13:10:36.839Z,6.73
2019-05-01T13:13:05.398Z,6.97
2019-05-01T13:15:33.860Z,7.93
2019-05-01T13:18:02.346Z,4.90
2019-05-01T13:20:30.813Z,7.77
2019-05-01T13:22:59.300Z,5.37
2019-05-01T13:25:27.758Z,9.23
2019-05-01T13:28:03.959Z,6.00
2019-05-01T13:30:50.121Z,6.00
2019-05-01T13:33:18.612Z,9.03
2019-05-01T13:35:47.080Z,5.97
2019-05-01T13:38:15.656Z,6.60
2019-05-01T13:40:44.176Z,4.90
2019-05-01T13:43:12.667Z,7.03
2019-05-01T13:45:41.128Z,4.47
2019-05-01T13:48:09.678Z,9.20
2019-05-01T13:50:38.132Z,5.60
2019-05-01T13:53:06.696Z,4.00
2019-05-01T13:55:35.149Z,9.07
2019-05-01T13:58:03.917Z,9.17
2019-05-01T14:00:32.356Z,7.17
2019-05-01T14:03:00.866Z,8.60
2019-05-01T14:05:29.486Z,6.10
2019-05-01T14:07:57.990Z,5.17
2019-05-01T14:10:26.638Z,7.23
2019-05-01T14:15:24.020Z,4.23
2019-05-01T14:17:52.484Z,8.70
2019-05-01T14:20:31.510Z,10.23
2019-05-01T14:23:01.613Z,8.83
2019-05-01T14:25:31.747Z,8.43
2019-05-01T14:28:00.205Z,11.93
2019-05-01T14:30:28.701Z,8.63
2019-05-01T14:32:57.166Z,7.53
2019-05-01T14:35:25.663Z,8.10
2019-05-01T14:37:54.125Z,5.60
2019-05-01T14:40:22.707Z,6.97
2019-05-01T14:42:51.169Z,9.83
2019-05-01T14:45:19.839Z,6.60
2019-05-01T14:47:48.295Z,6.00
2019-05-01T14:50:16.858Z,10.20
2019-05-01T14:52:45.327Z,7.43
2019-05-01T14:55:13.885Z,8.30
2019-05-01T14:57:42.431Z,6.50
2019-05-01T15:00:11.763Z,14.20
2019-05-01T15:02:40.224Z,6.90
2019-05-01T15:05:08.784Z,5.17
2019-05-01T15:07:43.748Z,7.50
2019-05-01T15:10:07.549Z,9.83
2019-05-01T15:12:36.007Z,9.07
2019-05-01T15:15:10.675Z,4.67
2019-05-01T15:17:53.307Z,7.77
2019-05-01T15:20:21.718Z,8.83
2019-05-01T15:22:50.191Z,6.93
2019-05-01T15:25:18.792Z,5.53
2019-05-01T15:27:47.242Z,11.30
2019-05-01T15:30:17.778Z,4.87
2019-05-01T15:32:46.664Z,7.13
2019-05-01T15:35:15.161Z,7.97
2019-05-01T15:37:55.760Z,12.87
2019-05-01T15:40:18.119Z,6.43
2019-05-01T15:42:48.213Z,4.70
2019-05-01T15:45:17.278Z,6.73
2019-05-01T15:47:45.746Z,4.70
2019-05-01T15:50:14.241Z,7.13
2019-05-01T15:52:42.709Z,6.73
2019-05-01T15:55:11.630Z,7.77
2019-05-01T15:57:40.093Z,7.73
2019-05-01T16:00:09.504Z,8.70
2019-05-01T16:02:37.967Z,4.77
2019-05-01T16:05:06.806Z,6.07
2019-05-01T16:07:35.258Z,4.03
2019-05-01T16:10:10.191Z,7.17
2019-05-01T16:12:43.240Z,4.47
2019-05-01T16:15:13.509Z,5.27
2019-05-01T16:17:41.991Z,4.37
2019-05-01T16:20:10.539Z,5.70
2019-05-01T16:22:38.996Z,4.77
2019-05-01T16:25:07.737Z,3.60
2019-05-01T16:27:36.355Z,11.40
2019-05-01T16:30:07.145Z,5.30
2019-05-01T16:32:35.617Z,4.33
2019-05-01T16:35:04.942Z,5.40
2019-05-01T16:37:33.478Z,6.90
2019-05-01T16:40:09.477Z,7.50
2019-05-01T16:42:37.941Z,6.60
2019-05-01T16:45:07.941Z,9.03
2019-05-01T16:47:36.403Z,8.50
2019-05-01T16:50:09.001Z,8.63
2019-05-01T16:52:37.623Z,7.43
2019-05-01T16:55:07.426Z,5.57
2019-05-01T16:57:35.993Z,5.40
2019-05-01T17:00:08.206Z,5.20
2019-05-01T17:02:53.298Z,5.33
2019-05-01T17:05:23.425Z,6.30
2019-05-01T17:07:56.485Z,6.97
2019-05-01T17:10:26.694Z,12.20
2019-05-01T17:12:56.455Z,5.73
2019-05-01T17:15:26.744Z,11.20
2019-05-01T17:17:55.204Z,9.03
2019-05-01T17:20:24.422Z,14.73
2019-05-01T17:22:53.000Z,7.80
2019-05-01T17:25:21.524Z,5.83
2019-05-01T17:27:50.083Z,5.57
2019-05-01T17:30:23.352Z,6.60
2019-05-01T17:32:51.855Z,8.47
2019-05-01T17:35:20.459Z,7.08
2019-05-01T17:37:48.945Z,9.17
2019-05-01T17:40:17.417Z,8.63
2019-05-01T17:42:45.940Z,7.00
2019-05-01T17:45:14.475Z,6.60
2019-05-01T17:47:43.032Z,5.27
2019-05-01T17:50:11.663Z,11.13
2019-05-01T17:52:40.162Z,9.37
2019-05-01T17:55:08.693Z,10.33
2019-05-01T17:57:37.178Z,6.30
2019-05-01T18:00:17.680Z,5.55
2019-05-01T18:02:47.812Z,7.83
2019-05-01T18:05:23.913Z,7.40
2019-05-01T18:07:52.425Z,6.73
2019-05-01T18:10:20.885Z,6.43
2019-05-01T18:12:49.373Z,7.50
2019-05-01T18:15:17.835Z,7.30
2019-05-01T18:17:46.321Z,9.10
2019-05-01T18:20:14.790Z,5.27
2019-05-01T18:22:47.394Z,6.17
2019-05-01T18:25:17.560Z,9.40
2019-05-01T18:28:03.750Z,7.10
2019-05-01T18:30:33.855Z,5.90
2019-05-01T18:33:02.372Z,6.23
2019-05-01T18:35:30.987Z,6.63
2019-05-01T18:38:06.297Z,6.30
2019-05-01T18:40:36.033Z,8.47
2019-05-01T18:43:05.133Z,6.03
2019-05-01T18:45:48.487Z,7.47
2019-05-01T18:48:17.078Z,7.20
2019-05-01T18:50:49.637Z,9.50
2019-05-01T18:53:16.111Z,9.67
2019-05-01T18:55:44.592Z,7.00
2019-05-01T18:58:13.242Z,8.47
2019-05-01T19:00:41.817Z,9.70
2019-05-01T19:03:10.384Z,12.57
2019-05-01T19:05:43.143Z,8.10
2019-05-01T19:08:09.462Z,13.13
2019-05-01T19:10:38.105Z,9.23
2019-05-01T19:13:07.029Z,9.77
2019-05-01T19:15:35.531Z,10.80
2019-05-01T19:18:04.457Z,11.40
2019-05-01T19:20:33.052Z,8.43
2019-05-01T19:23:01.524Z,8.87
2019-05-01T19:25:29.982Z,9.80
2019-05-01T19:27:58.492Z,15.73
2019-05-01T19:30:27.069Z,13.33
2019-05-01T19:32:55.540Z,11.10
2019-05-01T19:35:29.636Z,12.53
2019-05-01T19:37:57.423Z,10.97
2019-05-01T19:40:25.105Z,9.93
2019-05-01T19:42:57.969Z,12.00
2019-05-01T19:45:24.752Z,10.10
2019-05-01T19:47:53.437Z,12.10
2019-05-01T19:50:22.164Z,10.77
2019-05-01T19:52:50.964Z,9.07
2019-05-01T19:55:19.763Z,9.87
2019-05-01T19:57:48.225Z,10.50
2019-05-01T20:00:20.825Z,9.53
2019-05-01T20:02:49.353Z,8.70
2019-05-01T20:05:21.984Z,10.70
2019-05-01T20:07:51.158Z,7.73
2019-05-01T20:10:18.209Z,10.73
2019-05-01T20:12:46.769Z,9.20
2019-05-01T20:15:19.925Z,11.97
2019-05-01T20:17:45.458Z,8.43
2019-05-01T20:20:14.064Z,11.70
2019-05-01T20:22:42.565Z,12.73
2019-05-01T20:25:14.623Z,13.48
2019-05-01T20:27:47.838Z,14.40
2019-05-01T20:30:13.604Z,15.90
2019-05-01T20:32:42.055Z,14.20
2019-05-01T20:35:10.638Z,11.73
2019-05-01T20:37:39.099Z,13.20
2019-05-01T20:40:11.415Z,13.20
2019-05-01T20:42:38.050Z,14.40
2019-05-01T20:45:13.020Z,17.03
2019-05-01T20:47:45.118Z,13.97
2019-05-01T20:50:08.490Z,11.27
2019-05-01T20:52:36.967Z,16.03
2019-05-01T20:55:06.622Z,14.38
2019-05-01T20:57:37.037Z,11.87
2019-05-01T21:00:11.427Z,13.40
2019-05-01T21:02:38.947Z,15.77
2019-05-01T21:05:24.501Z,13.03
2019-05-01T21:08:09.213Z,11.93
2019-05-01T21:10:53.986Z,13.17
2019-05-01T21:13:23.078Z,11.67
2019-05-01T21:15:56.252Z,11.90
2019-05-01T21:18:26.077Z,16.33
2019-05-01T21:20:54.041Z,15.80
2019-05-01T21:23:23.332Z,12.30
2019-05-01T21:25:53.742Z,12.23
2019-05-01T21:28:23.864Z,11.57
2019-05-01T21:30:54.392Z,13.90
2019-05-01T21:33:23.765Z,10.30
2019-05-01T21:35:53.329Z,11.90
2019-05-01T21:38:21.833Z,12.73
2019-05-01T21:40:50.773Z,11.20
2019-05-01T21:43:19.285Z,11.70
2019-05-01T21:45:47.798Z,16.80
2019-05-01T21:48:16.261Z,16.47
2019-05-01T21:50:44.768Z,16.43
2019-05-01T21:53:13.228Z,15.90
2019-05-01T21:55:41.720Z,10.27
2019-05-01T21:58:10.188Z,13.60
2019-05-01T22:00:40.526Z,15.57
2019-05-01T22:03:09.048Z,12.20
2019-05-01T22:05:39.685Z,13.90
2019-05-01T22:08:08.287Z,11.17
2019-05-01T22:10:51.785Z,12.92
2019-05-01T22:13:14.896Z,14.80
2019-05-01T22:15:47.268Z,19.83
2019-05-01T22:18:25.581Z,12.70
2019-05-01T22:21:07.327Z,16.73
2019-05-01T22:23:53.794Z,12.27
2019-05-01T22:26:23.227Z,17.00
2019-05-01T22:28:54.833Z,14.37
2019-05-01T22:31:25.374Z,14.43
2019-05-01T22:33:55.543Z,16.93
2019-05-01T22:36:24.042Z,15.70
2019-05-01T22:38:52.520Z,18.33
2019-05-01T22:41:21.035Z,12.28
2019-05-01T22:43:49.510Z,13.50
2019-05-01T22:46:19.644Z,16.70
2019-05-01T22:48:48.112Z,14.07
2019-05-01T22:51:21.151Z,12.10
2019-05-01T22:53:51.328Z,12.70
2019-05-01T22:56:19.829Z,12.47
2019-05-01T22:58:48.298Z,12.80
2019-05-01T23:01:18.105Z,14.27
2019-05-01T23:03:51.785Z,16.67
2019-05-01T23:06:20.366Z,18.10
2019-05-01T23:08:48.832Z,15.57
2019-05-01T23:11:20.018Z,16.00
2019-05-01T23:13:47.516Z,14.80
2019-05-01T23:16:17.585Z,15.53
2019-05-01T23:18:47.026Z,14.40
2019-05-01T23:21:16.288Z,19.07
2019-05-01T23:23:44.769Z,16.37
2019-05-01T23:26:16.677Z,14.10
2019-05-01T23:28:43.381Z,13.83
2019-05-01T23:31:11.870Z,15.03
2019-05-01T23:33:40.405Z,10.33
2019-05-01T23:36:08.901Z,12.53
2019-05-01T23:38:37.438Z,19.10
2019-05-01T23:41:05.933Z,13.60
2019-05-01T23:43:34.405Z,22.47
2019-05-01T23:46:02.904Z,15.17
2019-05-01T23:48:31.374Z,15.43
2019-05-01T23:50:59.938Z,14.30
2019-05-01T23:53:28.408Z,13.77
2019-05-01T23:56:00.205Z,16.50
2019-05-01T23:58:27.022Z,10.90
